createdAt,value
2022-12-15T00:03:09.155Z,-2.85
2022-12-15T00:08:31.090Z,-2.87
2022-12-15T00:13:51.786Z,-2.87
2022-12-15T00:19:12.304Z,-2.88
2022-12-15T00:24:34.036Z,-2.91
2022-12-15T00:29:54.328Z,-2.90
2022-12-15T00:35:14.599Z,-2.94
2022-12-15T00:40:18.799Z,-2.94
2022-12-15T00:45:41.650Z,-3.06
2022-12-15T00:50:54.386Z,-3.07
2022-12-15T00:56:16.009Z,-3.06
2022-12-15T01:01:37.248Z,-3.02
2022-12-15T01:06:57.702Z,-3.03
2022-12-15T01:12:19.424Z,-3.02
2022-12-15T01:17:40.321Z,-3.05
2022-12-15T01:22:43.424Z,-3.18
2022-12-15T01:27:47.648Z,-3.30
2022-12-15T01:32:50.501Z,-3.37
2022-12-15T01:37:53.262Z,-3.31
2022-12-15T01:42:57.417Z,-3.30
2022-12-15T01:48:05.581Z,-3.29
2022-12-15T01:53:09.222Z,-3.25
2022-12-15T01:58:15.933Z,-3.24
2022-12-15T02:03:18.779Z,-3.25
2022-12-15T02:08:22.017Z,-3.16
2022-12-15T02:13:36.249Z,-3.21
2022-12-15T02:18:47.883Z,-3.26
2022-12-15T02:24:20.617Z,-3.24
2022-12-15T02:29:41.709Z,-3.30
2022-12-15T02:34:50.996Z,-3.22
2022-12-15T02:39:53.890Z,-3.25
2022-12-15T02:45:01.470Z,-3.29
2022-12-15T02:50:26.584Z,-3.31
2022-12-15T02:55:38.908Z,-3.33
2022-12-15T03:00:46.635Z,-3.31
2022-12-15T03:05:53.231Z,-3.29
2022-12-15T03:10:57.810Z,-3.34
2022-12-15T03:16:01.296Z,-3.38
2022-12-15T03:21:05.957Z,-3.45
2022-12-15T03:26:08.836Z,-3.43
2022-12-15T03:31:11.616Z,-3.46
2022-12-15T03:36:15.668Z,-3.31
2022-12-15T03:41:19.323Z,-3.32
2022-12-15T03:46:22.121Z,-3.27
2022-12-15T03:51:26.527Z,-3.29
2022-12-15T03:56:29.330Z,-3.48
2022-12-15T04:01:34.094Z,-3.43
2022-12-15T04:06:38.307Z,-3.45
2022-12-15T04:11:41.007Z,-3.38
2022-12-15T04:16:43.893Z,-3.50
2022-12-15T04:21:48.078Z,-3.52
2022-12-15T04:27:08.685Z,-3.66
2022-12-15T04:32:29.079Z,-3.59
2022-12-15T04:37:50.880Z,-3.53
2022-12-15T04:43:11.426Z,-3.57
2022-12-15T04:48:32.203Z,-3.56
2022-12-15T04:53:54.035Z,-3.54
2022-12-15T04:59:14.459Z,-3.72
2022-12-15T05:04:34.771Z,-3.72
2022-12-15T05:10:02.575Z,-3.72
2022-12-15T05:15:24.370Z,-3.78
2022-12-15T05:20:44.573Z,-3.90
2022-12-15T05:26:06.692Z,-3.83
2022-12-15T05:31:27.485Z,-3.94
2022-12-15T05:36:30.527Z,-3.91
2022-12-15T05:41:34.834Z,-3.85
2022-12-15T05:46:38.434Z,-3.86
2022-12-15T05:51:43.702Z,-3.88
2022-12-15T05:56:50.141Z,-3.86
2022-12-15T06:01:53.933Z,-3.91
2022-12-15T06:06:56.841Z,-3.93
2022-12-15T06:12:00.928Z,-3.95
2022-12-15T06:17:03.695Z,-3.94
2022-12-15T06:22:07.352Z,-3.91
2022-12-15T06:27:11.449Z,-3.97
2022-12-15T06:32:14.244Z,-4.13
2022-12-15T06:37:16.967Z,-4.24
2022-12-15T06:42:24.039Z,-4.09
2022-12-15T06:47:27.082Z,-4.17
2022-12-15T06:52:30.730Z,-4.17
2022-12-15T06:57:34.987Z,-4.28
2022-12-15T07:02:38.014Z,-4.34
2022-12-15T07:07:40.985Z,-4.27
2022-12-15T07:12:45.186Z,-4.30
2022-12-15T07:17:48.048Z,-4.33
2022-12-15T07:22:51.576Z,-4.39
2022-12-15T07:27:56.116Z,-4.29
2022-12-15T07:32:58.981Z,-4.30
2022-12-15T07:38:01.747Z,-4.41
2022-12-15T07:43:05.902Z,-4.23
2022-12-15T07:48:08.689Z,-4.22
2022-12-15T07:53:11.532Z,-4.57
2022-12-15T07:58:15.716Z,-4.30
2022-12-15T08:03:18.775Z,-4.27
2022-12-15T08:08:22.608Z,-4.26
2022-12-15T08:14:00.791Z,-4.23
2022-12-15T08:18:50.044Z,-4.17
2022-12-15T08:23:52.836Z,-4.21
2022-12-15T08:29:11.788Z,-4.08
2022-12-15T08:34:24.581Z,-3.91
2022-12-15T08:39:27.983Z,-3.96
2022-12-15T08:44:32.226Z,-3.95
2022-12-15T08:49:35.392Z,-3.86
2022-12-15T08:54:39.079Z,-3.76
2022-12-15T08:59:43.447Z,-3.77
2022-12-15T09:04:46.545Z,-3.64
2022-12-15T09:09:49.439Z,-3.55
2022-12-15T09:14:59.833Z,-3.44
2022-12-15T09:20:04.454Z,-3.49
2022-12-15T09:25:11.406Z,-3.29
2022-12-15T09:30:17.397Z,-3.12
2022-12-15T09:35:20.831Z,-3.00
2022-12-15T09:40:24.322Z,-2.95
2022-12-15T09:45:39.949Z,-2.82
2022-12-15T09:50:46.442Z,-2.59
2022-12-15T09:56:02.474Z,-2.95
2022-12-15T10:01:15.480Z,-2.66
2022-12-15T10:06:22.051Z,-2.73
2022-12-15T10:11:40.488Z,-2.79
2022-12-15T10:16:55.480Z,-2.84
2022-12-15T10:21:59.455Z,-2.50
2022-12-15T10:27:13.492Z,-2.64
2022-12-15T10:32:21.441Z,-2.83
2022-12-15T10:37:25.365Z,-2.68
2022-12-15T10:42:29.908Z,-2.67
2022-12-15T10:47:34.538Z,-2.59
2022-12-15T10:52:39.153Z,-2.84
2022-12-15T10:57:59.449Z,-2.53
2022-12-15T11:03:22.368Z,-2.38
2022-12-15T11:08:33.679Z,-2.23
2022-12-15T11:13:37.787Z,-2.23
2022-12-15T11:18:46.557Z,-2.44
2022-12-15T11:23:58.820Z,-2.40
2022-12-15T11:29:08.450Z,-2.30
2022-12-15T11:34:20.725Z,-2.15
2022-12-15T11:39:37.990Z,-2.22
2022-12-15T11:44:56.548Z,-2.40
2022-12-15T11:50:15.565Z,-2.34
2022-12-15T11:55:30.253Z,-2.24
2022-12-15T12:00:46.534Z,-2.27
2022-12-15T12:06:25.687Z,-2.09
2022-12-15T12:11:39.558Z,-1.91
2022-12-15T12:16:47.882Z,-2.18
2022-12-15T12:21:59.814Z,-2.36
2022-12-15T12:27:06.575Z,-2.05
2022-12-15T12:32:19.661Z,-2.24
2022-12-15T12:37:28.858Z,-2.23
2022-12-15T12:42:38.629Z,-2.12
2022-12-15T12:47:45.421Z,-2.11
2022-12-15T12:52:52.765Z,-2.38
2022-12-15T12:57:56.789Z,-2.68
2022-12-15T13:03:18.578Z,-2.90
2022-12-15T13:13:59.580Z,-2.80
2022-12-15T13:19:06.696Z,-2.54
2022-12-15T13:24:24.241Z,-2.66
2022-12-15T13:29:29.697Z,-2.52
2022-12-15T13:34:40.326Z,-2.66
2022-12-15T13:40:01.866Z,-2.86
2022-12-15T13:45:25.390Z,-3.01
2022-12-15T13:50:37.607Z,-3.15
2022-12-15T13:55:51.050Z,-3.03
2022-12-15T14:00:59.116Z,-3.18
2022-12-15T14:06:02.573Z,-3.18
2022-12-15T14:16:34.105Z,-3.10
2022-12-15T14:21:37.195Z,-3.31
2022-12-15T14:26:45.279Z,-3.43
2022-12-15T14:31:55.713Z,-3.55
2022-12-15T14:37:02.302Z,-3.58
2022-12-15T14:42:08.591Z,-3.66
2022-12-15T14:47:21.401Z,-3.76
2022-12-15T14:52:29.275Z,-3.93
2022-12-15T14:57:42.456Z,-4.12
2022-12-15T15:02:46.737Z,-4.19
2022-12-15T15:07:56.231Z,-4.10
2022-12-15T15:13:00.313Z,-4.02
2022-12-15T15:18:05.460Z,-3.99
2022-12-15T15:23:17.667Z,-4.03
2022-12-15T15:28:26.618Z,-4.07
2022-12-15T15:33:30.680Z,-4.09
2022-12-15T15:38:36.039Z,-4.10
2022-12-15T15:43:40.095Z,-4.08
2022-12-15T15:48:47.581Z,-4.06
2022-12-15T15:53:50.553Z,-4.06
2022-12-15T15:58:53.425Z,-4.07
2022-12-15T16:03:57.567Z,-4.07
2022-12-15T16:09:03.448Z,-4.11
2022-12-15T16:14:12.815Z,-4.08
2022-12-15T16:19:17.110Z,-4.12
2022-12-15T16:24:20.425Z,-4.00
2022-12-15T16:29:23.213Z,-4.07
2022-12-15T16:34:27.442Z,-4.17
2022-12-15T16:39:34.085Z,-4.15
2022-12-15T16:44:36.827Z,-4.15
2022-12-15T16:49:41.569Z,-4.11
2022-12-15T16:54:48.892Z,-4.18
2022-12-15T16:59:51.806Z,-4.18
2022-12-15T17:04:56.046Z,-4.16
2022-12-15T17:09:59.122Z,-4.21
2022-12-15T17:15:02.843Z,-4.31
2022-12-15T17:26:18.114Z,-4.28
2022-12-15T17:31:01.454Z,-4.30
2022-12-15T17:36:13.161Z,-4.33
2022-12-15T17:41:35.433Z,-4.40
2022-12-15T17:46:38.951Z,-4.46
2022-12-15T17:51:44.389Z,-4.39
2022-12-15T17:56:49.166Z,-4.45
2022-12-15T18:01:52.778Z,-4.52
2022-12-15T18:07:01.693Z,-4.59
2022-12-15T18:12:11.162Z,-4.58
2022-12-15T18:17:14.017Z,-4.74
2022-12-15T18:22:22.251Z,-4.89
2022-12-15T18:27:28.884Z,-4.87
2022-12-15T18:32:32.489Z,-4.88
2022-12-15T18:37:36.757Z,-4.99
2022-12-15T18:42:40.280Z,-4.99
2022-12-15T18:47:43.094Z,-5.01
2022-12-15T18:52:49.015Z,-5.07
2022-12-15T18:57:52.920Z,-5.21
2022-12-15T19:03:00.101Z,-5.29
2022-12-15T19:08:10.020Z,-5.20
2022-12-15T19:13:15.395Z,-5.22
2022-12-15T19:18:37.254Z,-5.29
2022-12-15T19:23:41.754Z,-5.34
2022-12-15T19:28:44.476Z,-5.30
2022-12-15T19:33:47.367Z,-5.27
2022-12-15T19:38:55.393Z,-5.27
2022-12-15T19:43:58.444Z,-5.27
2022-12-15T19:49:01.275Z,-5.34
2022-12-15T19:54:06.755Z,-5.39
2022-12-15T19:59:19.765Z,-5.32
2022-12-15T20:04:24.540Z,-5.43
2022-12-15T20:09:28.777Z,-5.44
2022-12-15T20:14:31.670Z,-5.50
2022-12-15T20:19:34.828Z,-5.43
2022-12-15T20:24:39.821Z,-5.47
2022-12-15T20:29:42.666Z,-5.61
2022-12-15T20:34:46.216Z,-5.56
2022-12-15T20:39:57.015Z,-5.55
2022-12-15T20:45:00.378Z,-5.56
2022-12-15T20:50:03.482Z,-5.55
2022-12-15T20:55:15.538Z,-5.51
2022-12-15T21:00:19.073Z,-5.61
2022-12-15T21:05:23.721Z,-5.70
2022-12-15T21:10:29.146Z,-5.70
2022-12-15T21:15:32.363Z,-5.72
2022-12-15T21:20:35.243Z,-5.80
2022-12-15T21:25:39.400Z,-5.95
2022-12-15T21:30:42.414Z,-6.06
2022-12-15T21:35:47.648Z,-6.21
2022-12-15T21:40:57.665Z,-6.23
2022-12-15T21:46:03.676Z,-6.41
2022-12-15T21:51:06.630Z,-6.48
2022-12-15T21:56:15.462Z,-6.51
2022-12-15T22:01:22.116Z,-6.58
2022-12-15T22:06:27.085Z,-6.63
2022-12-15T22:11:32.807Z,-6.74
2022-12-15T22:16:35.572Z,-6.81
2022-12-15T22:21:38.348Z,-6.88
2022-12-15T22:26:43.258Z,-7.01
2022-12-15T22:31:46.125Z,-7.10
2022-12-15T22:36:49.479Z,-7.19
2022-12-15T22:41:54.662Z,-7.31
2022-12-15T22:47:00.766Z,-7.35
2022-12-15T22:52:04.139Z,-7.43
2022-12-15T22:57:18.287Z,-7.55
2022-12-15T23:02:21.179Z,-7.69
2022-12-15T23:07:24.069Z,-7.73
2022-12-15T23:12:28.582Z,-7.87
2022-12-15T23:17:31.330Z,-8.01
2022-12-15T23:22:34.094Z,-8.11
2022-12-15T23:27:38.194Z,-8.16
2022-12-15T23:32:40.913Z,-8.20
2022-12-15T23:37:43.702Z,-8.33
2022-12-15T23:42:48.044Z,-8.48
2022-12-15T23:47:50.754Z,-8.37
2022-12-15T23:52:53.541Z,-8.41
2022-12-15T23:57:58.978Z,-8.48
